sensor_id;sensor_type;location;lat;lon;timestamp;P1;durP1;ratioP1;P2;durP2;ratioP2
7833;SDS011;3962;42.696;23.354;2023-09-07T00:00:40;5.40;;;5.20;;
7833;SDS011;3962;42.696;23.354;2023-09-07T00:03:07;6.73;;;6.43;;
7833;SDS011;3962;42.696;23.354;2023-09-07T00:05:34;7.10;;;6.80;;
7833;SDS011;3962;42.696;23.354;2023-09-07T00:08:02;6.67;;;6.37;;
7833;SDS011;3962;42.696;23.354;2023-09-07T00:10:30;7.10;;;6.80;;
7833;SDS011;3962;42.696;23.354;2023-09-07T00:12:56;6.77;;;6.47;;
7833;SDS011;3962;42.696;23.354;2023-09-07T00:15:23;6.00;;;5.70;;
7833;SDS011;3962;42.696;23.354;2023-09-07T00:17:51;6.93;;;6.63;;
7833;SDS011;3962;42.696;23.354;2023-09-07T00:20:18;6.60;;;6.30;;
7833;SDS011;3962;42.696;23.354;2023-09-07T00:22:46;5.80;;;5.60;;
7833;SDS011;3962;42.696;23.354;2023-09-07T00:25:14;6.17;;;5.87;;
7833;SDS011;3962;42.696;23.354;2023-09-07T00:27:41;6.03;;;5.73;;
7833;SDS011;3962;42.696;23.354;2023-09-07T00:30:09;5.60;;;5.40;;
7833;SDS011;3962;42.696;23.354;2023-09-07T00:32:36;6.63;;;6.33;;
7833;SDS011;3962;42.696;23.354;2023-09-07T00:35:04;6.83;;;6.53;;
7833;SDS011;3962;42.696;23.354;2023-09-07T00:37:31;7.07;;;6.77;;
7833;SDS011;3962;42.696;23.354;2023-09-07T00:39:58;7.10;;;6.80;;
7833;SDS011;3962;42.696;23.354;2023-09-07T00:42:26;5.97;;;5.77;;
7833;SDS011;3962;42.696;23.354;2023-09-07T00:44:53;5.50;;;5.30;;
7833;SDS011;3962;42.696;23.354;2023-09-07T00:47:20;6.30;;;6.10;;
7833;SDS011;3962;42.696;23.354;2023-09-07T00:49:47;5.73;;;5.53;;
7833;SDS011;3962;42.696;23.354;2023-09-07T00:52:14;6.23;;;6.03;;
7833;SDS011;3962;42.696;23.354;2023-09-07T00:54:42;5.93;;;5.73;;
7833;SDS011;3962;42.696;23.354;2023-09-07T00:57:09;6.10;;;5.90;;
7833;SDS011;3962;42.696;23.354;2023-09-07T00:59:37;5.23;;;5.03;;
7833;SDS011;3962;42.696;23.354;2023-09-07T01:02:04;6.50;;;6.27;;
7833;SDS011;3962;42.696;23.354;2023-09-07T01:04:31;6.40;;;6.17;;
7833;SDS011;3962;42.696;23.354;2023-09-07T01:07:00;5.80;;;5.60;;
7833;SDS011;3962;42.696;23.354;2023-09-07T01:09:34;7.23;;;6.93;;
7833;SDS011;3962;42.696;23.354;2023-09-07T01:12:03;6.70;;;6.40;;
7833;SDS011;3962;42.696;23.354;2023-09-07T01:14:32;5.87;;;5.67;;
7833;SDS011;3962;42.696;23.354;2023-09-07T01:17:00;5.87;;;5.67;;
7833;SDS011;3962;42.696;23.354;2023-09-07T01:19:28;6.63;;;6.33;;
7833;SDS011;3962;42.696;23.354;2023-09-07T01:21:57;6.77;;;6.47;;
7833;SDS011;3962;42.696;23.354;2023-09-07T01:24:23;6.10;;;5.90;;
7833;SDS011;3962;42.696;23.354;2023-09-07T01:26:51;6.80;;;6.50;;
7833;SDS011;3962;42.696;23.354;2023-09-07T01:29:19;6.27;;;6.07;;
7833;SDS011;3962;42.696;23.354;2023-09-07T01:31:46;5.50;;;5.30;;
7833;SDS011;3962;42.696;23.354;2023-09-07T01:34:13;6.80;;;6.50;;
7833;SDS011;3962;42.696;23.354;2023-09-07T01:36:40;5.60;;;5.40;;
7833;SDS011;3962;42.696;23.354;2023-09-07T01:39:08;6.07;;;5.87;;
7833;SDS011;3962;42.696;23.354;2023-09-07T01:41:35;6.10;;;5.90;;
7833;SDS011;3962;42.696;23.354;2023-09-07T01:44:01;7.20;;;6.90;;
7833;SDS011;3962;42.696;23.354;2023-09-07T01:46:28;6.67;;;6.37;;
7833;SDS011;3962;42.696;23.354;2023-09-07T01:48:55;7.10;;;6.80;;
7833;SDS011;3962;42.696;23.354;2023-09-07T01:51:22;7.20;;;6.90;;
7833;SDS011;3962;42.696;23.354;2023-09-07T01:53:53;6.17;;;5.97;;
7833;SDS011;3962;42.696;23.354;2023-09-07T01:56:21;6.23;;;6.03;;
7833;SDS011;3962;42.696;23.354;2023-09-07T01:58:48;7.13;;;6.83;;
7833;SDS011;3962;42.696;23.354;2023-09-07T02:01:21;5.60;;;5.40;;
7833;SDS011;3962;42.696;23.354;2023-09-07T02:03:48;6.03;;;5.83;;
7833;SDS011;3962;42.696;23.354;2023-09-07T02:06:15;6.60;;;6.30;;
7833;SDS011;3962;42.696;23.354;2023-09-07T02:08:42;7.80;;;7.50;;
7833;SDS011;3962;42.696;23.354;2023-09-07T02:11:09;7.43;;;7.13;;
7833;SDS011;3962;42.696;23.354;2023-09-07T02:13:37;7.53;;;7.23;;
7833;SDS011;3962;42.696;23.354;2023-09-07T02:16:04;6.30;;;6.10;;
7833;SDS011;3962;42.696;23.354;2023-09-07T02:18:31;7.07;;;6.77;;
7833;SDS011;3962;42.696;23.354;2023-09-07T02:21:01;7.57;;;7.27;;
7833;SDS011;3962;42.696;23.354;2023-09-07T02:23:28;7.03;;;6.73;;
7833;SDS011;3962;42.696;23.354;2023-09-07T02:25:55;7.07;;;6.77;;
7833;SDS011;3962;42.696;23.354;2023-09-07T02:28:22;7.87;;;7.57;;
7833;SDS011;3962;42.696;23.354;2023-09-07T02:30:51;6.80;;;6.50;;
7833;SDS011;3962;42.696;23.354;2023-09-07T02:33:18;6.00;;;5.80;;
7833;SDS011;3962;42.696;23.354;2023-09-07T02:35:47;5.90;;;5.70;;
7833;SDS011;3962;42.696;23.354;2023-09-07T02:38:14;7.63;;;7.33;;
7833;SDS011;3962;42.696;23.354;2023-09-07T02:40:41;7.07;;;6.77;;
7833;SDS011;3962;42.696;23.354;2023-09-07T02:43:09;6.00;;;5.80;;
7833;SDS011;3962;42.696;23.354;2023-09-07T02:45:35;7.13;;;6.83;;
7833;SDS011;3962;42.696;23.354;2023-09-07T02:48:04;7.00;;;6.70;;
7833;SDS011;3962;42.696;23.354;2023-09-07T02:53:26;6.13;;;5.93;;
7833;SDS011;3962;42.696;23.354;2023-09-07T02:55:53;6.07;;;5.87;;
7833;SDS011;3962;42.696;23.354;2023-09-07T02:58:19;6.20;;;6.00;;
7833;SDS011;3962;42.696;23.354;2023-09-07T03:00:46;5.77;;;5.57;;
7833;SDS011;3962;42.696;23.354;2023-09-07T03:03:14;5.90;;;5.70;;
7833;SDS011;3962;42.696;23.354;2023-09-07T03:05:42;6.60;;;6.30;;
7833;SDS011;3962;42.696;23.354;2023-09-07T03:08:10;6.63;;;6.33;;
7833;SDS011;3962;42.696;23.354;2023-09-07T03:10:37;6.23;;;6.00;;
7833;SDS011;3962;42.696;23.354;2023-09-07T03:13:04;7.70;;;7.40;;
7833;SDS011;3962;42.696;23.354;2023-09-07T03:15:31;6.77;;;6.47;;
7833;SDS011;3962;42.696;23.354;2023-09-07T03:17:59;6.37;;;6.07;;
7833;SDS011;3962;42.696;23.354;2023-09-07T03:20:27;7.87;;;7.57;;
7833;SDS011;3962;42.696;23.354;2023-09-07T03:22:54;8.37;;;7.97;;
7833;SDS011;3962;42.696;23.354;2023-09-07T03:25:22;7.40;;;7.10;;
7833;SDS011;3962;42.696;23.354;2023-09-07T03:27:49;6.73;;;6.43;;
7833;SDS011;3962;42.696;23.354;2023-09-07T03:30:16;7.80;;;7.50;;
7833;SDS011;3962;42.696;23.354;2023-09-07T03:32:43;7.73;;;7.43;;
7833;SDS011;3962;42.696;23.354;2023-09-07T03:35:10;8.20;;;7.80;;
7833;SDS011;3962;42.696;23.354;2023-09-07T03:37:38;7.13;;;6.83;;
7833;SDS011;3962;42.696;23.354;2023-09-07T03:40:05;7.20;;;6.90;;
7833;SDS011;3962;42.696;23.354;2023-09-07T03:42:34;6.70;;;6.40;;
7833;SDS011;3962;42.696;23.354;2023-09-07T03:45:01;7.87;;;7.57;;
7833;SDS011;3962;42.696;23.354;2023-09-07T03:47:29;8.03;;;7.63;;
7833;SDS011;3962;42.696;23.354;2023-09-07T03:49:55;6.70;;;6.40;;
7833;SDS011;3962;42.696;23.354;2023-09-07T03:52:24;7.30;;;7.00;;
7833;SDS011;3962;42.696;23.354;2023-09-07T03:54:53;8.23;;;7.87;;
7833;SDS011;3962;42.696;23.354;2023-09-07T03:57:20;6.13;;;5.93;;
7833;SDS011;3962;42.696;23.354;2023-09-07T03:59:47;7.77;;;7.47;;
7833;SDS011;3962;42.696;23.354;2023-09-07T04:02:14;6.93;;;6.63;;
7833;SDS011;3962;42.696;23.354;2023-09-07T04:04:42;6.30;;;6.07;;
7833;SDS011;3962;42.696;23.354;2023-09-07T04:07:08;6.73;;;6.43;;
7833;SDS011;3962;42.696;23.354;2023-09-07T04:09:36;7.50;;;7.20;;
7833;SDS011;3962;42.696;23.354;2023-09-07T04:12:04;6.80;;;6.50;;
7833;SDS011;3962;42.696;23.354;2023-09-07T04:14:32;7.90;;;7.57;;
7833;SDS011;3962;42.696;23.354;2023-09-07T04:16:59;5.80;;;5.60;;
7833;SDS011;3962;42.696;23.354;2023-09-07T04:19:25;6.40;;;6.20;;
7833;SDS011;3962;42.696;23.354;2023-09-07T04:21:52;6.83;;;6.53;;
7833;SDS011;3962;42.696;23.354;2023-09-07T04:24:19;6.90;;;6.60;;
7833;SDS011;3962;42.696;23.354;2023-09-07T04:26:47;7.13;;;6.83;;
7833;SDS011;3962;42.696;23.354;2023-09-07T04:29:16;7.30;;;6.90;;
7833;SDS011;3962;42.696;23.354;2023-09-07T04:31:43;7.00;;;6.60;;
7833;SDS011;3962;42.696;23.354;2023-09-07T04:34:09;8.10;;;7.80;;
7833;SDS011;3962;42.696;23.354;2023-09-07T04:36:36;8.50;;;8.10;;
7833;SDS011;3962;42.696;23.354;2023-09-07T04:39:03;7.70;;;7.30;;
7833;SDS011;3962;42.696;23.354;2023-09-07T04:41:30;7.33;;;7.03;;
7833;SDS011;3962;42.696;23.354;2023-09-07T04:43:57;6.97;;;6.67;;
7833;SDS011;3962;42.696;23.354;2023-09-07T04:46:25;8.43;;;7.87;;
7833;SDS011;3962;42.696;23.354;2023-09-07T04:48:51;6.77;;;6.47;;
7833;SDS011;3962;42.696;23.354;2023-09-07T04:51:18;8.80;;;8.37;;
7833;SDS011;3962;42.696;23.354;2023-09-07T04:53:47;8.07;;;7.60;;
7833;SDS011;3962;42.696;23.354;2023-09-07T04:56:13;7.17;;;6.87;;
7833;SDS011;3962;42.696;23.354;2023-09-07T04:58:41;7.97;;;7.67;;
7833;SDS011;3962;42.696;23.354;2023-09-07T05:01:08;7.70;;;7.17;;
7833;SDS011;3962;42.696;23.354;2023-09-07T05:03:39;7.60;;;7.20;;
7833;SDS011;3962;42.696;23.354;2023-09-07T05:06:06;8.17;;;7.83;;
7833;SDS011;3962;42.696;23.354;2023-09-07T05:08:33;8.17;;;7.77;;
7833;SDS011;3962;42.696;23.354;2023-09-07T05:11:00;7.63;;;7.27;;
7833;SDS011;3962;42.696;23.354;2023-09-07T05:13:28;6.93;;;6.63;;
7833;SDS011;3962;42.696;23.354;2023-09-07T05:15:56;8.60;;;8.20;;
7833;SDS011;3962;42.696;23.354;2023-09-07T05:18:25;8.13;;;7.73;;
7833;SDS011;3962;42.696;23.354;2023-09-07T05:20:53;7.13;;;6.73;;
7833;SDS011;3962;42.696;23.354;2023-09-07T05:23:20;9.20;;;8.80;;
7833;SDS011;3962;42.696;23.354;2023-09-07T05:25:48;9.13;;;8.73;;
7833;SDS011;3962;42.696;23.354;2023-09-07T05:28:17;7.13;;;6.73;;
7833;SDS011;3962;42.696;23.354;2023-09-07T05:30:45;8.30;;;7.90;;
7833;SDS011;3962;42.696;23.354;2023-09-07T05:33:13;7.67;;;7.27;;
7833;SDS011;3962;42.696;23.354;2023-09-07T05:35:41;7.43;;;7.03;;
7833;SDS011;3962;42.696;23.354;2023-09-07T05:38:09;6.23;;;6.00;;
7833;SDS011;3962;42.696;23.354;2023-09-07T05:40:36;7.40;;;7.10;;
7833;SDS011;3962;42.696;23.354;2023-09-07T05:43:04;7.47;;;7.17;;
7833;SDS011;3962;42.696;23.354;2023-09-07T05:45:33;6.67;;;6.37;;
7833;SDS011;3962;42.696;23.354;2023-09-07T05:48:01;7.67;;;7.37;;
7833;SDS011;3962;42.696;23.354;2023-09-07T05:50:29;7.03;;;6.73;;
7833;SDS011;3962;42.696;23.354;2023-09-07T05:52:56;6.93;;;6.63;;
7833;SDS011;3962;42.696;23.354;2023-09-07T05:55:24;6.83;;;6.53;;
7833;SDS011;3962;42.696;23.354;2023-09-07T05:57:53;9.17;;;8.77;;
7833;SDS011;3962;42.696;23.354;2023-09-07T06:00:20;7.20;;;6.90;;
7833;SDS011;3962;42.696;23.354;2023-09-07T06:02:48;7.27;;;6.97;;
7833;SDS011;3962;42.696;23.354;2023-09-07T06:05:16;7.47;;;7.17;;
7833;SDS011;3962;42.696;23.354;2023-09-07T06:07:43;9.27;;;8.87;;
7833;SDS011;3962;42.696;23.354;2023-09-07T06:10:10;7.57;;;7.27;;
7833;SDS011;3962;42.696;23.354;2023-09-07T06:12:38;6.93;;;6.63;;
7833;SDS011;3962;42.696;23.354;2023-09-07T06:15:06;7.13;;;6.80;;
7833;SDS011;3962;42.696;23.354;2023-09-07T06:17:34;6.83;;;6.53;;
7833;SDS011;3962;42.696;23.354;2023-09-07T06:20:00;6.70;;;6.40;;
7833;SDS011;3962;42.696;23.354;2023-09-07T06:22:28;6.57;;;6.27;;
7833;SDS011;3962;42.696;23.354;2023-09-07T06:24:54;7.33;;;7.00;;
7833;SDS011;3962;42.696;23.354;2023-09-07T06:27:21;7.20;;;6.90;;
7833;SDS011;3962;42.696;23.354;2023-09-07T06:29:50;6.90;;;6.60;;
7833;SDS011;3962;42.696;23.354;2023-09-07T06:32:17;6.03;;;5.73;;
7833;SDS011;3962;42.696;23.354;2023-09-07T06:34:44;6.87;;;6.57;;
7833;SDS011;3962;42.696;23.354;2023-09-07T06:37:12;6.93;;;6.63;;
7833;SDS011;3962;42.696;23.354;2023-09-07T06:39:39;7.10;;;6.80;;
7833;SDS011;3962;42.696;23.354;2023-09-07T06:42:08;6.60;;;6.30;;
7833;SDS011;3962;42.696;23.354;2023-09-07T06:44:35;6.07;;;5.77;;
7833;SDS011;3962;42.696;23.354;2023-09-07T06:47:03;7.50;;;6.80;;
7833;SDS011;3962;42.696;23.354;2023-09-07T06:49:30;7.63;;;7.33;;
7833;SDS011;3962;42.696;23.354;2023-09-07T06:51:57;6.30;;;6.00;;
7833;SDS011;3962;42.696;23.354;2023-09-07T06:54:24;6.17;;;5.87;;
7833;SDS011;3962;42.696;23.354;2023-09-07T06:56:51;6.90;;;6.60;;
7833;SDS011;3962;42.696;23.354;2023-09-07T06:59:18;6.47;;;6.17;;
7833;SDS011;3962;42.696;23.354;2023-09-07T07:01:44;8.00;;;7.63;;
7833;SDS011;3962;42.696;23.354;2023-09-07T07:04:13;7.67;;;7.27;;
7833;SDS011;3962;42.696;23.354;2023-09-07T07:06:39;8.07;;;7.77;;
7833;SDS011;3962;42.696;23.354;2023-09-07T07:09:07;6.60;;;6.30;;
7833;SDS011;3962;42.696;23.354;2023-09-07T07:11:34;6.37;;;6.07;;
7833;SDS011;3962;42.696;23.354;2023-09-07T07:14:01;7.00;;;6.70;;
7833;SDS011;3962;42.696;23.354;2023-09-07T07:16:28;6.63;;;6.33;;
7833;SDS011;3962;42.696;23.354;2023-09-07T07:18:54;6.53;;;6.23;;
7833;SDS011;3962;42.696;23.354;2023-09-07T07:21:22;5.77;;;5.57;;
7833;SDS011;3962;42.696;23.354;2023-09-07T07:23:49;6.50;;;6.20;;
7833;SDS011;3962;42.696;23.354;2023-09-07T07:26:16;5.90;;;5.70;;
7833;SDS011;3962;42.696;23.354;2023-09-07T07:28:43;6.60;;;6.30;;
7833;SDS011;3962;42.696;23.354;2023-09-07T07:31:10;6.57;;;6.27;;
7833;SDS011;3962;42.696;23.354;2023-09-07T07:33:37;6.37;;;6.07;;
7833;SDS011;3962;42.696;23.354;2023-09-07T07:36:04;5.87;;;5.57;;
7833;SDS011;3962;42.696;23.354;2023-09-07T07:38:33;6.57;;;6.17;;
7833;SDS011;3962;42.696;23.354;2023-09-07T07:41:05;6.23;;;5.93;;
7833;SDS011;3962;42.696;23.354;2023-09-07T07:43:32;6.70;;;6.40;;
7833;SDS011;3962;42.696;23.354;2023-09-07T07:45:59;4.40;;;4.20;;
7833;SDS011;3962;42.696;23.354;2023-09-07T07:48:26;5.87;;;5.67;;
7833;SDS011;3962;42.696;23.354;2023-09-07T07:50:53;6.23;;;6.00;;
7833;SDS011;3962;42.696;23.354;2023-09-07T07:53:20;6.63;;;6.33;;
7833;SDS011;3962;42.696;23.354;2023-09-07T07:55:49;5.67;;;5.47;;
7833;SDS011;3962;42.696;23.354;2023-09-07T07:58:15;5.77;;;5.57;;
7833;SDS011;3962;42.696;23.354;2023-09-07T08:00:42;5.77;;;5.57;;
7833;SDS011;3962;42.696;23.354;2023-09-07T08:03:12;6.10;;;5.90;;
7833;SDS011;3962;42.696;23.354;2023-09-07T08:05:39;5.70;;;5.50;;
7833;SDS011;3962;42.696;23.354;2023-09-07T08:08:06;5.90;;;5.63;;
7833;SDS011;3962;42.696;23.354;2023-09-07T08:10:33;6.30;;;6.00;;
7833;SDS011;3962;42.696;23.354;2023-09-07T08:13:03;5.57;;;5.30;;
7833;SDS011;3962;42.696;23.354;2023-09-07T08:15:31;6.73;;;6.43;;
7833;SDS011;3962;42.696;23.354;2023-09-07T08:17:58;6.43;;;6.13;;
7833;SDS011;3962;42.696;23.354;2023-09-07T08:20:25;5.67;;;5.47;;
7833;SDS011;3962;42.696;23.354;2023-09-07T08:22:54;5.67;;;5.47;;
7833;SDS011;3962;42.696;23.354;2023-09-07T08:25:24;5.97;;;5.70;;
7833;SDS011;3962;42.696;23.354;2023-09-07T08:27:52;4.50;;;4.30;;
7833;SDS011;3962;42.696;23.354;2023-09-07T08:30:24;6.10;;;5.80;;
7833;SDS011;3962;42.696;23.354;2023-09-07T08:32:51;4.73;;;4.53;;
7833;SDS011;3962;42.696;23.354;2023-09-07T08:35:18;5.83;;;5.63;;
7833;SDS011;3962;42.696;23.354;2023-09-07T08:37:44;5.73;;;5.53;;
7833;SDS011;3962;42.696;23.354;2023-09-07T08:40:11;5.43;;;5.23;;
7833;SDS011;3962;42.696;23.354;2023-09-07T08:42:41;4.73;;;4.53;;
7833;SDS011;3962;42.696;23.354;2023-09-07T08:45:11;5.13;;;4.93;;
7833;SDS011;3962;42.696;23.354;2023-09-07T08:47:47;5.20;;;5.00;;
7833;SDS011;3962;42.696;23.354;2023-09-07T08:50:16;4.70;;;4.50;;
7833;SDS011;3962;42.696;23.354;2023-09-07T08:52:45;4.77;;;4.57;;
7833;SDS011;3962;42.696;23.354;2023-09-07T08:55:18;5.07;;;4.87;;
7833;SDS011;3962;42.696;23.354;2023-09-07T08:57:48;6.43;;;5.80;;
7833;SDS011;3962;42.696;23.354;2023-09-07T09:00:15;5.07;;;4.87;;
7833;SDS011;3962;42.696;23.354;2023-09-07T09:02:47;5.17;;;4.97;;
7833;SDS011;3962;42.696;23.354;2023-09-07T09:05:14;5.00;;;4.80;;
7833;SDS011;3962;42.696;23.354;2023-09-07T09:07:43;5.27;;;5.07;;
7833;SDS011;3962;42.696;23.354;2023-09-07T09:10:10;5.17;;;4.97;;
7833;SDS011;3962;42.696;23.354;2023-09-07T09:12:44;5.07;;;4.87;;
7833;SDS011;3962;42.696;23.354;2023-09-07T09:15:11;5.03;;;4.83;;
7833;SDS011;3962;42.696;23.354;2023-09-07T09:17:38;5.50;;;5.30;;
7833;SDS011;3962;42.696;23.354;2023-09-07T09:20:20;4.97;;;4.77;;
7833;SDS011;3962;42.696;23.354;2023-09-07T09:22:52;4.90;;;4.70;;
7833;SDS011;3962;42.696;23.354;2023-09-07T09:25:21;4.47;;;4.27;;
7833;SDS011;3962;42.696;23.354;2023-09-07T09:27:48;4.53;;;4.33;;
7833;SDS011;3962;42.696;23.354;2023-09-07T09:30:15;4.33;;;4.13;;
7833;SDS011;3962;42.696;23.354;2023-09-07T09:32:42;4.20;;;4.00;;
7833;SDS011;3962;42.696;23.354;2023-09-07T09:35:09;4.67;;;4.47;;
7833;SDS011;3962;42.696;23.354;2023-09-07T09:37:44;4.73;;;4.53;;
7833;SDS011;3962;42.696;23.354;2023-09-07T09:40:14;4.47;;;4.27;;
7833;SDS011;3962;42.696;23.354;2023-09-07T09:42:43;4.77;;;4.57;;
7833;SDS011;3962;42.696;23.354;2023-09-07T09:45:10;6.10;;;5.73;;
7833;SDS011;3962;42.696;23.354;2023-09-07T09:47:39;5.37;;;5.07;;
7833;SDS011;3962;42.696;23.354;2023-09-07T09:50:07;4.00;;;3.80;;
7833;SDS011;3962;42.696;23.354;2023-09-07T09:52:35;5.10;;;4.90;;
7833;SDS011;3962;42.696;23.354;2023-09-07T09:55:05;4.77;;;4.57;;
7833;SDS011;3962;42.696;23.354;2023-09-07T09:57:34;5.03;;;4.83;;
7833;SDS011;3962;42.696;23.354;2023-09-07T10:00:01;6.00;;;5.70;;
7833;SDS011;3962;42.696;23.354;2023-09-07T10:02:44;5.23;;;4.90;;
7833;SDS011;3962;42.696;23.354;2023-09-07T10:05:14;4.90;;;4.70;;
7833;SDS011;3962;42.696;23.354;2023-09-07T10:07:42;5.60;;;5.30;;
7833;SDS011;3962;42.696;23.354;2023-09-07T10:10:13;5.00;;;4.70;;
7833;SDS011;3962;42.696;23.354;2023-09-07T10:12:41;4.53;;;4.33;;
7833;SDS011;3962;42.696;23.354;2023-09-07T10:15:19;5.57;;;5.30;;
7833;SDS011;3962;42.696;23.354;2023-09-07T10:17:49;4.13;;;3.97;;
7833;SDS011;3962;42.696;23.354;2023-09-07T10:20:18;5.00;;;4.80;;
7833;SDS011;3962;42.696;23.354;2023-09-07T10:22:48;5.10;;;4.90;;
7833;SDS011;3962;42.696;23.354;2023-09-07T10:25:22;4.83;;;4.63;;
7833;SDS011;3962;42.696;23.354;2023-09-07T10:27:52;5.80;;;5.60;;
7833;SDS011;3962;42.696;23.354;2023-09-07T10:30:19;4.40;;;4.20;;
7833;SDS011;3962;42.696;23.354;2023-09-07T10:32:49;5.77;;;5.57;;
7833;SDS011;3962;42.696;23.354;2023-09-07T10:35:16;4.63;;;4.43;;
7833;SDS011;3962;42.696;23.354;2023-09-07T10:37:47;5.03;;;4.83;;
7833;SDS011;3962;42.696;23.354;2023-09-07T10:40:21;4.97;;;4.77;;
7833;SDS011;3962;42.696;23.354;2023-09-07T10:42:48;4.73;;;4.53;;
7833;SDS011;3962;42.696;23.354;2023-09-07T10:45:15;4.70;;;4.50;;
7833;SDS011;3962;42.696;23.354;2023-09-07T10:47:43;5.40;;;5.20;;
7833;SDS011;3962;42.696;23.354;2023-09-07T10:50:11;5.60;;;5.40;;
7833;SDS011;3962;42.696;23.354;2023-09-07T10:52:39;5.00;;;4.80;;
7833;SDS011;3962;42.696;23.354;2023-09-07T10:55:07;5.27;;;5.07;;
7833;SDS011;3962;42.696;23.354;2023-09-07T10:57:44;5.47;;;5.27;;
7833;SDS011;3962;42.696;23.354;2023-09-07T11:00:13;5.53;;;5.33;;
7833;SDS011;3962;42.696;23.354;2023-09-07T11:02:42;5.03;;;4.83;;
7833;SDS011;3962;42.696;23.354;2023-09-07T11:05:11;5.10;;;4.90;;
7833;SDS011;3962;42.696;23.354;2023-09-07T11:07:38;5.30;;;5.10;;
7833;SDS011;3962;42.696;23.354;2023-09-07T11:10:09;4.90;;;4.70;;
7833;SDS011;3962;42.696;23.354;2023-09-07T11:12:36;4.93;;;4.73;;
7833;SDS011;3962;42.696;23.354;2023-09-07T11:15:07;5.50;;;5.30;;
7833;SDS011;3962;42.696;23.354;2023-09-07T11:17:36;5.73;;;5.53;;
7833;SDS011;3962;42.696;23.354;2023-09-07T11:20:04;5.53;;;5.33;;
7833;SDS011;3962;42.696;23.354;2023-09-07T11:22:32;4.83;;;4.63;;
7833;SDS011;3962;42.696;23.354;2023-09-07T11:25:00;5.47;;;5.27;;
7833;SDS011;3962;42.696;23.354;2023-09-07T11:27:28;5.40;;;5.20;;
7833;SDS011;3962;42.696;23.354;2023-09-07T11:29:56;5.77;;;5.57;;
7833;SDS011;3962;42.696;23.354;2023-09-07T11:32:32;5.43;;;5.23;;
7833;SDS011;3962;42.696;23.354;2023-09-07T11:35:00;5.63;;;5.43;;
7833;SDS011;3962;42.696;23.354;2023-09-07T11:37:27;5.20;;;5.00;;
7833;SDS011;3962;42.696;23.354;2023-09-07T11:39:54;6.03;;;5.73;;
7833;SDS011;3962;42.696;23.354;2023-09-07T11:42:21;5.17;;;4.97;;
7833;SDS011;3962;42.696;23.354;2023-09-07T11:44:51;5.53;;;5.33;;
7833;SDS011;3962;42.696;23.354;2023-09-07T11:47:18;4.90;;;4.70;;
7833;SDS011;3962;42.696;23.354;2023-09-07T11:49:47;6.07;;;5.77;;
7833;SDS011;3962;42.696;23.354;2023-09-07T11:52:15;5.30;;;5.10;;
7833;SDS011;3962;42.696;23.354;2023-09-07T11:54:42;5.67;;;5.47;;
7833;SDS011;3962;42.696;23.354;2023-09-07T11:57:09;4.83;;;4.63;;
7833;SDS011;3962;42.696;23.354;2023-09-07T11:59:36;5.07;;;4.87;;
7833;SDS011;3962;42.696;23.354;2023-09-07T12:02:03;4.53;;;4.33;;
7833;SDS011;3962;42.696;23.354;2023-09-07T12:04:30;4.43;;;4.23;;
7833;SDS011;3962;42.696;23.354;2023-09-07T12:07:00;5.57;;;5.37;;
7833;SDS011;3962;42.696;23.354;2023-09-07T12:09:28;4.87;;;4.67;;
7833;SDS011;3962;42.696;23.354;2023-09-07T12:11:55;5.20;;;5.00;;
7833;SDS011;3962;42.696;23.354;2023-09-07T12:14:22;4.60;;;4.40;;
7833;SDS011;3962;42.696;23.354;2023-09-07T12:16:48;5.20;;;5.00;;
7833;SDS011;3962;42.696;23.354;2023-09-07T12:19:15;5.10;;;4.90;;
7833;SDS011;3962;42.696;23.354;2023-09-07T12:21:42;5.00;;;4.80;;
7833;SDS011;3962;42.696;23.354;2023-09-07T12:24:10;5.93;;;5.73;;
7833;SDS011;3962;42.696;23.354;2023-09-07T12:26:37;4.97;;;4.77;;
7833;SDS011;3962;42.696;23.354;2023-09-07T12:29:04;5.20;;;5.00;;
7833;SDS011;3962;42.696;23.354;2023-09-07T12:31:32;5.43;;;5.20;;
7833;SDS011;3962;42.696;23.354;2023-09-07T12:33:59;5.30;;;5.10;;
7833;SDS011;3962;42.696;23.354;2023-09-07T12:36:26;4.10;;;4.00;;
7833;SDS011;3962;42.696;23.354;2023-09-07T12:38:55;4.97;;;4.77;;
7833;SDS011;3962;42.696;23.354;2023-09-07T12:41:27;4.03;;;3.93;;
7833;SDS011;3962;42.696;23.354;2023-09-07T12:43:54;4.40;;;4.20;;
7833;SDS011;3962;42.696;23.354;2023-09-07T12:46:21;5.07;;;4.87;;
7833;SDS011;3962;42.696;23.354;2023-09-07T12:48:48;4.77;;;4.57;;
7833;SDS011;3962;42.696;23.354;2023-09-07T12:51:15;5.87;;;5.67;;
7833;SDS011;3962;42.696;23.354;2023-09-07T12:53:42;4.93;;;4.73;;
7833;SDS011;3962;42.696;23.354;2023-09-07T12:56:09;5.37;;;5.13;;
7833;SDS011;3962;42.696;23.354;2023-09-07T12:58:39;4.60;;;4.40;;
7833;SDS011;3962;42.696;23.354;2023-09-07T13:01:05;5.27;;;5.07;;
7833;SDS011;3962;42.696;23.354;2023-09-07T13:03:35;4.50;;;4.30;;
7833;SDS011;3962;42.696;23.354;2023-09-07T13:06:02;4.53;;;4.33;;
7833;SDS011;3962;42.696;23.354;2023-09-07T13:08:29;4.43;;;4.23;;
7833;SDS011;3962;42.696;23.354;2023-09-07T13:10:56;5.17;;;4.97;;
7833;SDS011;3962;42.696;23.354;2023-09-07T13:13:22;3.90;;;3.80;;
7833;SDS011;3962;42.696;23.354;2023-09-07T13:15:52;4.20;;;4.07;;
7833;SDS011;3962;42.696;23.354;2023-09-07T13:18:24;4.77;;;4.57;;
7833;SDS011;3962;42.696;23.354;2023-09-07T13:20:51;4.50;;;4.30;;
7833;SDS011;3962;42.696;23.354;2023-09-07T13:23:20;4.77;;;4.57;;
7833;SDS011;3962;42.696;23.354;2023-09-07T13:25:47;4.27;;;4.10;;
7833;SDS011;3962;42.696;23.354;2023-09-07T13:28:14;4.27;;;4.10;;
7833;SDS011;3962;42.696;23.354;2023-09-07T13:30:41;4.67;;;4.47;;
7833;SDS011;3962;42.696;23.354;2023-09-07T13:33:09;4.53;;;4.33;;
7833;SDS011;3962;42.696;23.354;2023-09-07T13:35:35;4.03;;;3.93;;
7833;SDS011;3962;42.696;23.354;2023-09-07T13:38:02;4.33;;;4.17;;
7833;SDS011;3962;42.696;23.354;2023-09-07T13:40:30;4.70;;;4.50;;
7833;SDS011;3962;42.696;23.354;2023-09-07T13:42:56;4.97;;;4.77;;
7833;SDS011;3962;42.696;23.354;2023-09-07T13:45:24;4.73;;;4.53;;
7833;SDS011;3962;42.696;23.354;2023-09-07T13:47:51;4.73;;;4.53;;
7833;SDS011;3962;42.696;23.354;2023-09-07T13:50:19;4.83;;;4.63;;
7833;SDS011;3962;42.696;23.354;2023-09-07T13:52:48;4.60;;;4.40;;
7833;SDS011;3962;42.696;23.354;2023-09-07T13:55:17;4.57;;;4.37;;
7833;SDS011;3962;42.696;23.354;2023-09-07T13:57:46;4.80;;;4.60;;
7833;SDS011;3962;42.696;23.354;2023-09-07T14:00:13;4.23;;;4.13;;
7833;SDS011;3962;42.696;23.354;2023-09-07T14:02:42;5.90;;;5.70;;
7833;SDS011;3962;42.696;23.354;2023-09-07T14:05:09;5.23;;;5.03;;
7833;SDS011;3962;42.696;23.354;2023-09-07T14:07:37;5.63;;;5.43;;
7833;SDS011;3962;42.696;23.354;2023-09-07T14:10:04;4.20;;;4.00;;
7833;SDS011;3962;42.696;23.354;2023-09-07T14:12:32;5.80;;;5.60;;
7833;SDS011;3962;42.696;23.354;2023-09-07T14:14:59;5.20;;;5.00;;
7833;SDS011;3962;42.696;23.354;2023-09-07T14:17:29;5.43;;;5.20;;
7833;SDS011;3962;42.696;23.354;2023-09-07T14:19:58;4.37;;;4.17;;
7833;SDS011;3962;42.696;23.354;2023-09-07T14:22:25;5.30;;;5.10;;
7833;SDS011;3962;42.696;23.354;2023-09-07T14:24:53;4.67;;;4.47;;
7833;SDS011;3962;42.696;23.354;2023-09-07T14:27:20;4.57;;;4.37;;
7833;SDS011;3962;42.696;23.354;2023-09-07T14:29:47;5.13;;;4.93;;
7833;SDS011;3962;42.696;23.354;2023-09-07T14:32:14;5.20;;;5.00;;
7833;SDS011;3962;42.696;23.354;2023-09-07T14:34:44;5.23;;;5.03;;
7833;SDS011;3962;42.696;23.354;2023-09-07T14:37:13;4.73;;;4.53;;
7833;SDS011;3962;42.696;23.354;2023-09-07T14:39:41;5.93;;;5.63;;
7833;SDS011;3962;42.696;23.354;2023-09-07T14:42:13;4.60;;;4.40;;
7833;SDS011;3962;42.696;23.354;2023-09-07T14:44:42;4.90;;;4.70;;
7833;SDS011;3962;42.696;23.354;2023-09-07T14:47:09;5.57;;;5.37;;
7833;SDS011;3962;42.696;23.354;2023-09-07T14:49:36;5.70;;;5.50;;
7833;SDS011;3962;42.696;23.354;2023-09-07T14:52:10;5.87;;;5.67;;
7833;SDS011;3962;42.696;23.354;2023-09-07T14:54:37;5.10;;;4.90;;
7833;SDS011;3962;42.696;23.354;2023-09-07T14:57:05;4.93;;;4.73;;
7833;SDS011;3962;42.696;23.354;2023-09-07T14:59:33;5.20;;;5.00;;
7833;SDS011;3962;42.696;23.354;2023-09-07T15:02:00;5.80;;;5.53;;
7833;SDS011;3962;42.696;23.354;2023-09-07T15:04:30;5.60;;;5.40;;
7833;SDS011;3962;42.696;23.354;2023-09-07T15:06:57;4.90;;;4.70;;